Archival Weather

Granbury Rgnl

Granbury, Texas (KGDJ)

Report from: Monday, January 29, 2024 1:55 PM UTC
Current time: Tuesday, June 18, 2024 11:31 AM UTC

Current weather – Weather history – Daily summaries
Weather forecast

Temperature1.3°C (34.3°F)
Dew point0.4°C (32.7°F)
Winds Calm
Visibility10 mi. (16.1 km)
Clouds Sky clear
Altimeter30.35 in.Hg (1028 mB)
Relative humidity94 %
Density altitude-2,068 ft. (-630 m)
Remarks Fully automated report
Automated weather observing station with precipitation discriminator
Flight conditions Visual Meteorological Conditions
Raw dataKGDJ 291355Z AUTO 00000KT 10SM CLR 01/00 A3035 RMK AO2 T00130004
An error has occurred. This application may no longer respond until reloaded. Reload 🗙